sensor_id;sensor_type;location;lat;lon;timestamp;P1;durP1;ratioP1;P2;durP2;ratioP2
40116;SDS011;25829;50.228;18.936;2023-05-10T00:02:35;6.50;;;4.20;;
40116;SDS011;25829;50.228;18.936;2023-05-10T00:05:36;9.03;;;5.87;;
40116;SDS011;25829;50.228;18.936;2023-05-10T00:08:37;10.17;;;6.60;;
40116;SDS011;25829;50.228;18.936;2023-05-10T00:11:37;9.53;;;6.20;;
40116;SDS011;25829;50.228;18.936;2023-05-10T00:14:38;9.50;;;5.70;;
40116;SDS011;25829;50.228;18.936;2023-05-10T00:17:39;10.33;;;5.47;;
40116;SDS011;25829;50.228;18.936;2023-05-10T00:20:40;8.37;;;5.37;;
40116;SDS011;25829;50.228;18.936;2023-05-10T00:23:40;10.00;;;5.80;;
40116;SDS011;25829;50.228;18.936;2023-05-10T00:26:41;8.47;;;5.57;;
40116;SDS011;25829;50.228;18.936;2023-05-10T00:29:43;9.47;;;5.50;;
40116;SDS011;25829;50.228;18.936;2023-05-10T00:32:44;6.77;;;4.90;;
40116;SDS011;25829;50.228;18.936;2023-05-10T00:35:44;7.93;;;5.70;;
40116;SDS011;25829;50.228;18.936;2023-05-10T00:38:45;6.27;;;4.30;;
40116;SDS011;25829;50.228;18.936;2023-05-10T00:41:46;7.03;;;5.00;;
40116;SDS011;25829;50.228;18.936;2023-05-10T00:44:47;10.53;;;5.70;;
40116;SDS011;25829;50.228;18.936;2023-05-10T00:47:48;8.13;;;5.10;;
40116;SDS011;25829;50.228;18.936;2023-05-10T00:50:49;7.77;;;5.10;;
40116;SDS011;25829;50.228;18.936;2023-05-10T00:53:50;10.13;;;5.57;;
40116;SDS011;25829;50.228;18.936;2023-05-10T00:56:51;7.67;;;5.17;;
40116;SDS011;25829;50.228;18.936;2023-05-10T00:59:52;7.10;;;5.13;;
40116;SDS011;25829;50.228;18.936;2023-05-10T01:02:53;6.67;;;4.83;;
40116;SDS011;25829;50.228;18.936;2023-05-10T01:05:56;9.20;;;5.87;;
40116;SDS011;25829;50.228;18.936;2023-05-10T01:08:58;8.40;;;5.30;;
40116;SDS011;25829;50.228;18.936;2023-05-10T01:11:59;9.13;;;5.03;;
40116;SDS011;25829;50.228;18.936;2023-05-10T01:15:03;11.13;;;5.73;;
40116;SDS011;25829;50.228;18.936;2023-05-10T01:18:07;7.10;;;5.13;;
40116;SDS011;25829;50.228;18.936;2023-05-10T01:25:02;9.80;;;5.70;;
40116;SDS011;25829;50.228;18.936;2023-05-10T01:35:03;8.47;;;5.33;;
40116;SDS011;25829;50.228;18.936;2023-05-10T01:41:39;11.13;;;5.53;;
40116;SDS011;25829;50.228;18.936;2023-05-10T01:48:10;6.50;;;5.03;;
40116;SDS011;25829;50.228;18.936;2023-05-10T01:51:14;7.73;;;5.40;;
40116;SDS011;25829;50.228;18.936;2023-05-10T01:54:20;8.03;;;5.20;;
40116;SDS011;25829;50.228;18.936;2023-05-10T01:57:23;8.90;;;5.23;;
40116;SDS011;25829;50.228;18.936;2023-05-10T02:00:28;6.67;;;5.23;;
40116;SDS011;25829;50.228;18.936;2023-05-10T02:03:31;8.03;;;4.53;;
40116;SDS011;25829;50.228;18.936;2023-05-10T02:06:36;8.30;;;5.37;;
40116;SDS011;25829;50.228;18.936;2023-05-10T02:09:38;6.93;;;4.90;;
40116;SDS011;25829;50.228;18.936;2023-05-10T02:12:41;10.13;;;5.40;;
40116;SDS011;25829;50.228;18.936;2023-05-10T02:15:46;9.87;;;5.57;;
40116;SDS011;25829;50.228;18.936;2023-05-10T02:18:49;5.80;;;5.10;;
40116;SDS011;25829;50.228;18.936;2023-05-10T02:21:52;7.27;;;5.17;;
40116;SDS011;25829;50.228;18.936;2023-05-10T02:24:55;8.83;;;5.23;;
40116;SDS011;25829;50.228;18.936;2023-05-10T02:27:57;6.40;;;4.73;;
40116;SDS011;25829;50.228;18.936;2023-05-10T02:31:02;10.73;;;4.90;;
40116;SDS011;25829;50.228;18.936;2023-05-10T02:34:03;10.40;;;6.03;;
40116;SDS011;25829;50.228;18.936;2023-05-10T02:37:06;8.07;;;4.83;;
40116;SDS011;25829;50.228;18.936;2023-05-10T02:40:07;8.23;;;5.07;;
40116;SDS011;25829;50.228;18.936;2023-05-10T02:43:12;7.03;;;4.83;;
40116;SDS011;25829;50.228;18.936;2023-05-10T02:46:15;7.50;;;4.70;;
40116;SDS011;25829;50.228;18.936;2023-05-10T02:49:15;9.30;;;5.17;;
40116;SDS011;25829;50.228;18.936;2023-05-10T02:52:18;6.83;;;4.93;;
40116;SDS011;25829;50.228;18.936;2023-05-10T02:55:25;8.40;;;4.80;;
40116;SDS011;25829;50.228;18.936;2023-05-10T02:58:32;7.33;;;5.00;;
40116;SDS011;25829;50.228;18.936;2023-05-10T03:01:33;8.70;;;4.47;;
40116;SDS011;25829;50.228;18.936;2023-05-10T03:04:34;10.23;;;5.27;;
40116;SDS011;25829;50.228;18.936;2023-05-10T03:07:35;7.13;;;4.97;;
40116;SDS011;25829;50.228;18.936;2023-05-10T03:10:38;7.03;;;4.40;;
40116;SDS011;25829;50.228;18.936;2023-05-10T03:14:10;9.73;;;5.07;;
40116;SDS011;25829;50.228;18.936;2023-05-10T03:17:34;8.30;;;4.80;;
40116;SDS011;25829;50.228;18.936;2023-05-10T03:20:42;7.57;;;5.00;;
40116;SDS011;25829;50.228;18.936;2023-05-10T03:23:54;6.60;;;4.20;;
40116;SDS011;25829;50.228;18.936;2023-05-10T03:27:06;8.93;;;4.97;;
40116;SDS011;25829;50.228;18.936;2023-05-10T03:30:10;7.73;;;5.10;;
40116;SDS011;25829;50.228;18.936;2023-05-10T03:33:12;7.27;;;4.80;;
40116;SDS011;25829;50.228;18.936;2023-05-10T03:36:16;5.13;;;4.63;;
40116;SDS011;25829;50.228;18.936;2023-05-10T03:39:18;6.03;;;4.37;;
40116;SDS011;25829;50.228;18.936;2023-05-10T03:42:24;6.40;;;4.17;;
40116;SDS011;25829;50.228;18.936;2023-05-10T03:45:25;8.73;;;4.50;;
40116;SDS011;25829;50.228;18.936;2023-05-10T03:48:27;6.93;;;4.37;;
40116;SDS011;25829;50.228;18.936;2023-05-10T03:51:28;5.03;;;4.13;;
40116;SDS011;25829;50.228;18.936;2023-05-10T03:54:28;5.90;;;4.20;;
40116;SDS011;25829;50.228;18.936;2023-05-10T03:57:29;5.70;;;4.10;;
40116;SDS011;25829;50.228;18.936;2023-05-10T04:00:30;4.97;;;4.10;;
40116;SDS011;25829;50.228;18.936;2023-05-10T04:03:32;7.53;;;4.70;;
40116;SDS011;25829;50.228;18.936;2023-05-10T04:06:33;6.10;;;4.57;;
40116;SDS011;25829;50.228;18.936;2023-05-10T04:09:34;7.80;;;5.50;;
40116;SDS011;25829;50.228;18.936;2023-05-10T04:12:35;8.50;;;5.37;;
40116;SDS011;25829;50.228;18.936;2023-05-10T04:15:35;7.57;;;5.27;;
40116;SDS011;25829;50.228;18.936;2023-05-10T04:18:36;8.20;;;5.30;;
40116;SDS011;25829;50.228;18.936;2023-05-10T04:21:37;8.97;;;5.47;;
40116;SDS011;25829;50.228;18.936;2023-05-10T04:24:38;7.43;;;5.50;;
40116;SDS011;25829;50.228;18.936;2023-05-10T04:27:38;12.27;;;6.70;;
40116;SDS011;25829;50.228;18.936;2023-05-10T04:30:39;9.20;;;6.20;;
40116;SDS011;25829;50.228;18.936;2023-05-10T04:33:40;13.47;;;6.07;;
40116;SDS011;25829;50.228;18.936;2023-05-10T04:36:41;10.00;;;6.43;;
40116;SDS011;25829;50.228;18.936;2023-05-10T04:39:42;8.23;;;5.60;;
40116;SDS011;25829;50.228;18.936;2023-05-10T04:42:43;9.77;;;5.80;;
40116;SDS011;25829;50.228;18.936;2023-05-10T04:45:44;8.30;;;5.67;;
40116;SDS011;25829;50.228;18.936;2023-05-10T04:48:45;9.23;;;5.43;;
40116;SDS011;25829;50.228;18.936;2023-05-10T04:51:46;8.27;;;5.17;;
40116;SDS011;25829;50.228;18.936;2023-05-10T04:54:46;8.57;;;4.50;;
40116;SDS011;25829;50.228;18.936;2023-05-10T04:57:47;6.40;;;4.70;;
40116;SDS011;25829;50.228;18.936;2023-05-10T05:00:48;7.97;;;4.60;;
40116;SDS011;25829;50.228;18.936;2023-05-10T05:03:48;5.77;;;4.10;;
40116;SDS011;25829;50.228;18.936;2023-05-10T05:06:49;8.53;;;4.53;;
40116;SDS011;25829;50.228;18.936;2023-05-10T05:09:50;4.83;;;3.70;;
40116;SDS011;25829;50.228;18.936;2023-05-10T05:12:50;6.10;;;3.83;;
40116;SDS011;25829;50.228;18.936;2023-05-10T05:15:51;7.23;;;3.43;;
40116;SDS011;25829;50.228;18.936;2023-05-10T05:18:53;5.03;;;3.60;;
40116;SDS011;25829;50.228;18.936;2023-05-10T05:21:54;8.23;;;3.67;;
40116;SDS011;25829;50.228;18.936;2023-05-10T05:24:55;5.57;;;3.77;;
40116;SDS011;25829;50.228;18.936;2023-05-10T05:27:56;4.60;;;3.40;;
40116;SDS011;25829;50.228;18.936;2023-05-10T05:30:57;4.47;;;3.30;;
40116;SDS011;25829;50.228;18.936;2023-05-10T05:33:58;4.70;;;3.57;;
40116;SDS011;25829;50.228;18.936;2023-05-10T05:36:59;5.13;;;3.30;;
40116;SDS011;25829;50.228;18.936;2023-05-10T05:39:59;4.77;;;3.40;;
40116;SDS011;25829;50.228;18.936;2023-05-10T05:43:02;7.27;;;3.77;;
40116;SDS011;25829;50.228;18.936;2023-05-10T05:46:02;7.20;;;3.40;;
40116;SDS011;25829;50.228;18.936;2023-05-10T05:49:03;6.93;;;3.65;;
40116;SDS011;25829;50.228;18.936;2023-05-10T05:52:04;7.35;;;3.55;;
40116;SDS011;25829;50.228;18.936;2023-05-10T05:55:05;6.22;;;3.47;;
40116;SDS011;25829;50.228;18.936;2023-05-10T05:58:06;7.72;;;3.53;;
40116;SDS011;25829;50.228;18.936;2023-05-10T06:01:07;5.82;;;2.85;;
40116;SDS011;25829;50.228;18.936;2023-05-10T06:04:09;7.75;;;3.70;;
40116;SDS011;25829;50.228;18.936;2023-05-10T06:07:10;3.50;;;2.83;;
40116;SDS011;25829;50.228;18.936;2023-05-10T06:10:11;4.68;;;3.08;;
40116;SDS011;25829;50.228;18.936;2023-05-10T06:13:12;4.97;;;2.92;;
40116;SDS011;25829;50.228;18.936;2023-05-10T06:16:16;5.63;;;3.05;;
40116;SDS011;25829;50.228;18.936;2023-05-10T06:19:18;6.18;;;3.20;;
40116;SDS011;25829;50.228;18.936;2023-05-10T06:22:21;4.07;;;3.08;;
40116;SDS011;25829;50.228;18.936;2023-05-10T06:25:23;3.60;;;3.20;;
40116;SDS011;25829;50.228;18.936;2023-05-10T06:28:24;3.42;;;3.13;;
40116;SDS011;25829;50.228;18.936;2023-05-10T06:31:24;5.53;;;3.10;;
40116;SDS011;25829;50.228;18.936;2023-05-10T06:34:25;7.13;;;3.63;;
40116;SDS011;25829;50.228;18.936;2023-05-10T06:37:26;6.32;;;3.58;;
40116;SDS011;25829;50.228;18.936;2023-05-10T06:40:27;5.93;;;3.47;;
40116;SDS011;25829;50.228;18.936;2023-05-10T06:43:28;3.90;;;3.20;;
40116;SDS011;25829;50.228;18.936;2023-05-10T06:46:29;5.18;;;3.03;;
40116;SDS011;25829;50.228;18.936;2023-05-10T06:49:30;4.78;;;2.90;;
40116;SDS011;25829;50.228;18.936;2023-05-10T06:52:30;3.90;;;2.80;;
40116;SDS011;25829;50.228;18.936;2023-05-10T06:55:31;3.40;;;2.67;;
40116;SDS011;25829;50.228;18.936;2023-05-10T06:58:32;3.63;;;2.90;;
40116;SDS011;25829;50.228;18.936;2023-05-10T07:01:33;6.82;;;2.70;;
40116;SDS011;25829;50.228;18.936;2023-05-10T07:04:34;3.10;;;2.70;;
40116;SDS011;25829;50.228;18.936;2023-05-10T07:07:34;6.63;;;2.88;;
40116;SDS011;25829;50.228;18.936;2023-05-10T07:10:35;3.17;;;2.40;;
40116;SDS011;25829;50.228;18.936;2023-05-10T07:13:36;4.15;;;2.50;;
40116;SDS011;25829;50.228;18.936;2023-05-10T07:16:39;4.70;;;2.55;;
40116;SDS011;25829;50.228;18.936;2023-05-10T07:19:39;3.30;;;2.40;;
40116;SDS011;25829;50.228;18.936;2023-05-10T07:22:40;3.83;;;2.30;;
40116;SDS011;25829;50.228;18.936;2023-05-10T07:25:41;4.38;;;3.08;;
40116;SDS011;25829;50.228;18.936;2023-05-10T07:28:42;4.15;;;2.65;;
40116;SDS011;25829;50.228;18.936;2023-05-10T07:31:42;5.78;;;2.22;;
40116;SDS011;25829;50.228;18.936;2023-05-10T07:34:43;4.05;;;2.50;;
40116;SDS011;25829;50.228;18.936;2023-05-10T07:37:44;2.60;;;2.40;;
40116;SDS011;25829;50.228;18.936;2023-05-10T07:40:44;5.25;;;2.55;;
40116;SDS011;25829;50.228;18.936;2023-05-10T07:43:45;3.90;;;2.33;;
40116;SDS011;25829;50.228;18.936;2023-05-10T07:46:46;2.38;;;2.17;;
40116;SDS011;25829;50.228;18.936;2023-05-10T07:49:47;2.55;;;1.90;;
40116;SDS011;25829;50.228;18.936;2023-05-10T07:52:48;3.03;;;2.03;;
40116;SDS011;25829;50.228;18.936;2023-05-10T07:55:58;2.72;;;2.53;;
40116;SDS011;25829;50.228;18.936;2023-05-10T07:58:59;2.33;;;2.00;;
40116;SDS011;25829;50.228;18.936;2023-05-10T08:02:00;3.67;;;2.20;;
40116;SDS011;25829;50.228;18.936;2023-05-10T08:05:01;2.42;;;2.15;;
40116;SDS011;25829;50.228;18.936;2023-05-10T08:08:01;6.13;;;2.20;;
40116;SDS011;25829;50.228;18.936;2023-05-10T08:11:03;3.08;;;2.25;;
40116;SDS011;25829;50.228;18.936;2023-05-10T08:14:04;2.20;;;2.00;;
40116;SDS011;25829;50.228;18.936;2023-05-10T08:17:05;2.10;;;1.90;;
40116;SDS011;25829;50.228;18.936;2023-05-10T08:20:06;2.75;;;2.20;;
40116;SDS011;25829;50.228;18.936;2023-05-10T08:23:08;2.60;;;2.33;;
40116;SDS011;25829;50.228;18.936;2023-05-10T08:26:11;5.07;;;2.55;;
40116;SDS011;25829;50.228;18.936;2023-05-10T08:29:15;4.43;;;1.90;;
40116;SDS011;25829;50.228;18.936;2023-05-10T08:32:16;2.88;;;2.08;;
40116;SDS011;25829;50.228;18.936;2023-05-10T08:35:18;4.53;;;2.30;;
40116;SDS011;25829;50.228;18.936;2023-05-10T08:38:18;2.10;;;1.75;;
40116;SDS011;25829;50.228;18.936;2023-05-10T08:41:19;2.75;;;2.17;;
40116;SDS011;25829;50.228;18.936;2023-05-10T08:44:24;4.40;;;2.40;;
40116;SDS011;25829;50.228;18.936;2023-05-10T08:47:25;3.38;;;2.05;;
40116;SDS011;25829;50.228;18.936;2023-05-10T08:50:38;4.80;;;2.20;;
40116;SDS011;25829;50.228;18.936;2023-05-10T08:53:40;2.50;;;2.30;;
40116;SDS011;25829;50.228;18.936;2023-05-10T08:56:41;4.75;;;2.58;;
40116;SDS011;25829;50.228;18.936;2023-05-10T08:59:42;2.67;;;2.08;;
40116;SDS011;25829;50.228;18.936;2023-05-10T09:02:44;7.78;;;2.33;;
40116;SDS011;25829;50.228;18.936;2023-05-10T09:05:46;2.58;;;2.25;;
40116;SDS011;25829;50.228;18.936;2023-05-10T09:08:48;5.90;;;2.20;;
40116;SDS011;25829;50.228;18.936;2023-05-10T09:11:49;3.58;;;2.03;;
40116;SDS011;25829;50.228;18.936;2023-05-10T09:14:50;2.20;;;2.00;;
40116;SDS011;25829;50.228;18.936;2023-05-10T09:17:54;4.07;;;2.05;;
40116;SDS011;25829;50.228;18.936;2023-05-10T09:20:55;4.05;;;2.15;;
40116;SDS011;25829;50.228;18.936;2023-05-10T09:23:56;3.80;;;2.28;;
40116;SDS011;25829;50.228;18.936;2023-05-10T09:26:57;3.85;;;2.00;;
40116;SDS011;25829;50.228;18.936;2023-05-10T09:29:58;2.95;;;2.03;;
40116;SDS011;25829;50.228;18.936;2023-05-10T09:32:59;2.47;;;2.00;;
40116;SDS011;25829;50.228;18.936;2023-05-10T09:36:06;2.20;;;2.00;;
40116;SDS011;25829;50.228;18.936;2023-05-10T09:39:08;1.92;;;1.70;;
40116;SDS011;25829;50.228;18.936;2023-05-10T09:45:16;3.25;;;2.20;;
40116;SDS011;25829;50.228;18.936;2023-05-10T09:48:17;2.33;;;2.13;;
40116;SDS011;25829;50.228;18.936;2023-05-10T09:51:24;2.10;;;1.90;;
40116;SDS011;25829;50.228;18.936;2023-05-10T09:54:27;2.88;;;1.90;;
40116;SDS011;25829;50.228;18.936;2023-05-10T09:57:28;2.35;;;2.15;;
40116;SDS011;25829;50.228;18.936;2023-05-10T10:00:34;4.00;;;2.10;;
40116;SDS011;25829;50.228;18.936;2023-05-10T10:03:42;3.55;;;2.40;;
40116;SDS011;25829;50.228;18.936;2023-05-10T10:06:43;2.58;;;2.33;;
40116;SDS011;25829;50.228;18.936;2023-05-10T10:09:44;2.03;;;1.75;;
40116;SDS011;25829;50.228;18.936;2023-05-10T10:12:52;2.78;;;2.42;;
40116;SDS011;25829;50.228;18.936;2023-05-10T10:15:53;3.00;;;2.60;;
40116;SDS011;25829;50.228;18.936;2023-05-10T10:18:56;7.18;;;2.30;;
40116;SDS011;25829;50.228;18.936;2023-05-10T10:21:57;3.63;;;2.30;;
40116;SDS011;25829;50.228;18.936;2023-05-10T10:25:02;4.90;;;2.60;;
40116;SDS011;25829;50.228;18.936;2023-05-10T10:28:16;5.78;;;2.65;;
40116;SDS011;25829;50.228;18.936;2023-05-10T10:34:50;4.53;;;2.70;;
40116;SDS011;25829;50.228;18.936;2023-05-10T10:37:51;2.15;;;1.95;;
40116;SDS011;25829;50.228;18.936;2023-05-10T10:41:02;2.83;;;2.55;;
40116;SDS011;25829;50.228;18.936;2023-05-10T10:47:35;2.78;;;2.50;;
40116;SDS011;25829;50.228;18.936;2023-05-10T10:50:44;3.10;;;2.40;;
40116;SDS011;25829;50.228;18.936;2023-05-10T10:53:47;24.38;;;4.20;;
40116;SDS011;25829;50.228;18.936;2023-05-10T10:57:06;23.92;;;4.45;;
40116;SDS011;25829;50.228;18.936;2023-05-10T11:00:33;40.65;;;4.50;;
40116;SDS011;25829;50.228;18.936;2023-05-10T11:03:37;4.88;;;2.35;;
40116;SDS011;25829;50.228;18.936;2023-05-10T11:06:38;16.05;;;2.67;;
40116;SDS011;25829;50.228;18.936;2023-05-10T11:09:40;5.63;;;2.42;;
40116;SDS011;25829;50.228;18.936;2023-05-10T11:12:50;4.10;;;2.50;;
40116;SDS011;25829;50.228;18.936;2023-05-10T11:16:20;3.70;;;2.63;;
40116;SDS011;25829;50.228;18.936;2023-05-10T11:19:27;7.95;;;2.30;;
40116;SDS011;25829;50.228;18.936;2023-05-10T11:22:28;2.75;;;1.92;;
40116;SDS011;25829;50.228;18.936;2023-05-10T11:25:29;3.05;;;2.42;;
40116;SDS011;25829;50.228;18.936;2023-05-10T11:28:29;5.28;;;2.10;;
40116;SDS011;25829;50.228;18.936;2023-05-10T11:31:30;6.15;;;2.35;;
40116;SDS011;25829;50.228;18.936;2023-05-10T11:34:31;2.78;;;2.25;;
40116;SDS011;25829;50.228;18.936;2023-05-10T11:37:36;2.83;;;1.98;;
40116;SDS011;25829;50.228;18.936;2023-05-10T11:40:41;5.80;;;2.10;;
40116;SDS011;25829;50.228;18.936;2023-05-10T11:43:49;3.85;;;2.60;;
40116;SDS011;25829;50.228;18.936;2023-05-10T11:46:51;2.70;;;2.42;;
40116;SDS011;25829;50.228;18.936;2023-05-10T11:49:52;4.32;;;2.38;;
40116;SDS011;25829;50.228;18.936;2023-05-10T11:52:53;4.40;;;2.20;;
40116;SDS011;25829;50.228;18.936;2023-05-10T11:55:55;3.30;;;2.33;;
40116;SDS011;25829;50.228;18.936;2023-05-10T11:59:02;5.25;;;2.50;;
40116;SDS011;25829;50.228;18.936;2023-05-10T12:02:04;2.60;;;2.40;;
40116;SDS011;25829;50.228;18.936;2023-05-10T12:05:05;3.65;;;2.33;;
40116;SDS011;25829;50.228;18.936;2023-05-10T12:08:13;2.75;;;2.40;;
40116;SDS011;25829;50.228;18.936;2023-05-10T12:11:15;2.30;;;2.10;;
40116;SDS011;25829;50.228;18.936;2023-05-10T12:14:16;4.20;;;2.22;;
40116;SDS011;25829;50.228;18.936;2023-05-10T12:17:19;2.30;;;2.10;;
40116;SDS011;25829;50.228;18.936;2023-05-10T12:20:21;2.95;;;2.13;;
40116;SDS011;25829;50.228;18.936;2023-05-10T12:23:27;4.32;;;2.22;;
40116;SDS011;25829;50.228;18.936;2023-05-10T12:26:28;5.80;;;2.17;;
40116;SDS011;25829;50.228;18.936;2023-05-10T12:29:30;3.03;;;2.13;;
40116;SDS011;25829;50.228;18.936;2023-05-10T12:32:43;3.78;;;2.00;;
40116;SDS011;25829;50.228;18.936;2023-05-10T12:35:45;5.30;;;2.33;;
40116;SDS011;25829;50.228;18.936;2023-05-10T12:38:46;2.75;;;2.20;;
40116;SDS011;25829;50.228;18.936;2023-05-10T12:41:48;3.83;;;2.25;;
40116;SDS011;25829;50.228;18.936;2023-05-10T12:44:49;3.97;;;2.45;;
40116;SDS011;25829;50.228;18.936;2023-05-10T12:47:49;5.70;;;2.08;;
40116;SDS011;25829;50.228;18.936;2023-05-10T12:50:51;2.22;;;2.03;;
40116;SDS011;25829;50.228;18.936;2023-05-10T12:53:51;2.85;;;2.20;;
40116;SDS011;25829;50.228;18.936;2023-05-10T12:56:52;2.88;;;2.20;;
40116;SDS011;25829;50.228;18.936;2023-05-10T12:59:54;2.42;;;2.22;;
40116;SDS011;25829;50.228;18.936;2023-05-10T13:02:55;2.55;;;2.35;;
40116;SDS011;25829;50.228;18.936;2023-05-10T13:05:56;3.60;;;2.15;;
40116;SDS011;25829;50.228;18.936;2023-05-10T13:08:57;2.75;;;2.08;;
40116;SDS011;25829;50.228;18.936;2023-05-10T13:11:58;4.57;;;2.00;;
40116;SDS011;25829;50.228;18.936;2023-05-10T13:14:58;3.83;;;2.28;;
40116;SDS011;25829;50.228;18.936;2023-05-10T13:18:00;4.32;;;2.10;;
40116;SDS011;25829;50.228;18.936;2023-05-10T13:21:01;2.55;;;2.10;;
40116;SDS011;25829;50.228;18.936;2023-05-10T13:24:04;5.13;;;1.90;;
40116;SDS011;25829;50.228;18.936;2023-05-10T13:27:06;5.18;;;2.10;;
40116;SDS011;25829;50.228;18.936;2023-05-10T13:30:07;2.33;;;1.80;;
40116;SDS011;25829;50.228;18.936;2023-05-10T13:33:08;3.03;;;2.30;;
40116;SDS011;25829;50.228;18.936;2023-05-10T13:36:09;2.40;;;1.95;;
40116;SDS011;25829;50.228;18.936;2023-05-10T13:39:10;2.10;;;1.90;;
40116;SDS011;25829;50.228;18.936;2023-05-10T13:42:11;2.22;;;2.03;;
40116;SDS011;25829;50.228;18.936;2023-05-10T13:45:12;4.70;;;2.15;;
40116;SDS011;25829;50.228;18.936;2023-05-10T13:48:23;2.47;;;2.03;;
40116;SDS011;25829;50.228;18.936;2023-05-10T13:51:24;2.33;;;2.08;;
40116;SDS011;25829;50.228;18.936;2023-05-10T13:54:26;3.83;;;2.42;;
40116;SDS011;25829;50.228;18.936;2023-05-10T13:57:29;3.65;;;1.90;;
40116;SDS011;25829;50.228;18.936;2023-05-10T14:00:30;5.00;;;1.90;;
40116;SDS011;25829;50.228;18.936;2023-05-10T14:03:31;2.95;;;2.00;;
40116;SDS011;25829;50.228;18.936;2023-05-10T14:06:32;4.63;;;2.20;;
40116;SDS011;25829;50.228;18.936;2023-05-10T14:09:36;2.17;;;1.90;;
40116;SDS011;25829;50.228;18.936;2023-05-10T14:12:37;2.22;;;2.03;;
40116;SDS011;25829;50.228;18.936;2023-05-10T14:15:37;2.33;;;1.77;;
40116;SDS011;25829;50.228;18.936;2023-05-10T14:18:38;3.97;;;1.98;;
40116;SDS011;25829;50.228;18.936;2023-05-10T14:21:39;2.25;;;1.75;;
40116;SDS011;25829;50.228;18.936;2023-05-10T14:24:40;3.10;;;2.00;;
40116;SDS011;25829;50.228;18.936;2023-05-10T14:27:41;2.35;;;1.90;;
40116;SDS011;25829;50.228;18.936;2023-05-10T14:30:43;3.63;;;2.10;;
40116;SDS011;25829;50.228;18.936;2023-05-10T14:33:45;3.65;;;1.80;;
40116;SDS011;25829;50.228;18.936;2023-05-10T14:36:45;2.58;;;2.17;;
40116;SDS011;25829;50.228;18.936;2023-05-10T14:39:46;2.25;;;2.05;;
40116;SDS011;25829;50.228;18.936;2023-05-10T14:42:47;3.15;;;2.10;;
40116;SDS011;25829;50.228;18.936;2023-05-10T14:45:47;2.17;;;1.95;;
40116;SDS011;25829;50.228;18.936;2023-05-10T14:48:49;2.10;;;1.90;;
40116;SDS011;25829;50.228;18.936;2023-05-10T14:51:50;3.35;;;2.20;;
40116;SDS011;25829;50.228;18.936;2023-05-10T14:54:51;2.22;;;2.03;;
40116;SDS011;25829;50.228;18.936;2023-05-10T14:57:52;2.10;;;1.90;;
40116;SDS011;25829;50.228;18.936;2023-05-10T15:00:56;1.95;;;1.83;;
40116;SDS011;25829;50.228;18.936;2023-05-10T15:03:57;2.45;;;2.00;;
40116;SDS011;25829;50.228;18.936;2023-05-10T15:06:58;3.80;;;2.10;;
40116;SDS011;25829;50.228;18.936;2023-05-10T15:09:59;4.03;;;2.22;;
40116;SDS011;25829;50.228;18.936;2023-05-10T15:13:00;2.53;;;2.13;;
40116;SDS011;25829;50.228;18.936;2023-05-10T15:16:01;1.88;;;1.77;;
40116;SDS011;25829;50.228;18.936;2023-05-10T15:19:02;2.50;;;2.10;;
40116;SDS011;25829;50.228;18.936;2023-05-10T15:22:04;2.55;;;2.20;;
40116;SDS011;25829;50.228;18.936;2023-05-10T15:25:05;2.20;;;2.03;;
40116;SDS011;25829;50.228;18.936;2023-05-10T15:28:06;2.20;;;2.00;;
40116;SDS011;25829;50.228;18.936;2023-05-10T15:31:07;3.78;;;2.10;;
40116;SDS011;25829;50.228;18.936;2023-05-10T15:34:07;3.83;;;1.90;;
40116;SDS011;25829;50.228;18.936;2023-05-10T15:37:08;2.20;;;2.00;;
40116;SDS011;25829;50.228;18.936;2023-05-10T15:40:09;3.90;;;2.20;;
40116;SDS011;25829;50.228;18.936;2023-05-10T15:43:10;2.10;;;1.90;;
40116;SDS011;25829;50.228;18.936;2023-05-10T15:46:11;3.28;;;2.03;;
40116;SDS011;25829;50.228;18.936;2023-05-10T15:49:12;2.85;;;2.42;;
40116;SDS011;25829;50.228;18.936;2023-05-10T15:52:12;3.28;;;1.95;;
40116;SDS011;25829;50.228;18.936;2023-05-10T15:55:13;3.35;;;1.80;;
40116;SDS011;25829;50.228;18.936;2023-05-10T15:58:14;3.05;;;1.88;;
40116;SDS011;25829;50.228;18.936;2023-05-10T16:01:16;2.13;;;1.90;;
40116;SDS011;25829;50.228;18.936;2023-05-10T16:04:16;2.30;;;2.08;;
40116;SDS011;25829;50.228;18.936;2023-05-10T16:07:17;4.45;;;2.28;;
40116;SDS011;25829;50.228;18.936;2023-05-10T16:10:18;2.28;;;2.08;;
40116;SDS011;25829;50.228;18.936;2023-05-10T16:13:18;3.03;;;2.05;;
40116;SDS011;25829;50.228;18.936;2023-05-10T16:16:19;2.13;;;1.92;;
40116;SDS011;25829;50.228;18.936;2023-05-10T16:19:20;2.65;;;2.13;;
40116;SDS011;25829;50.228;18.936;2023-05-10T16:22:21;3.17;;;2.33;;
40116;SDS011;25829;50.228;18.936;2023-05-10T16:25:26;2.78;;;2.00;;
40116;SDS011;25829;50.228;18.936;2023-05-10T16:28:29;3.05;;;2.25;;
40116;SDS011;25829;50.228;18.936;2023-05-10T16:31:40;4.32;;;2.10;;
40116;SDS011;25829;50.228;18.936;2023-05-10T16:34:41;3.72;;;2.20;;
40116;SDS011;25829;50.228;18.936;2023-05-10T16:37:42;2.45;;;2.20;;
40116;SDS011;25829;50.228;18.936;2023-05-10T16:40:43;3.50;;;1.80;;
40116;SDS011;25829;50.228;18.936;2023-05-10T16:43:44;5.50;;;2.30;;
40116;SDS011;25829;50.228;18.936;2023-05-10T16:46:44;2.20;;;2.00;;
40116;SDS011;25829;50.228;18.936;2023-05-10T16:49:45;4.35;;;2.03;;
40116;SDS011;25829;50.228;18.936;2023-05-10T16:52:46;2.35;;;2.15;;
40116;SDS011;25829;50.228;18.936;2023-05-10T16:55:47;2.20;;;2.00;;
40116;SDS011;25829;50.228;18.936;2023-05-10T16:58:48;2.50;;;2.10;;
40116;SDS011;25829;50.228;18.936;2023-05-10T17:01:49;2.28;;;2.00;;
40116;SDS011;25829;50.228;18.936;2023-05-10T17:04:52;6.63;;;2.35;;
40116;SDS011;25829;50.228;18.936;2023-05-10T17:07:55;2.45;;;2.20;;
40116;SDS011;25829;50.228;18.936;2023-05-10T17:10:57;3.50;;;2.20;;
40116;SDS011;25829;50.228;18.936;2023-05-10T17:14:00;11.15;;;3.72;;
40116;SDS011;25829;50.228;18.936;2023-05-10T17:17:01;4.80;;;2.72;;
40116;SDS011;25829;50.228;18.936;2023-05-10T17:20:02;6.85;;;3.03;;
40116;SDS011;25829;50.228;18.936;2023-05-10T17:23:04;5.60;;;2.40;;
40116;SDS011;25829;50.228;18.936;2023-05-10T17:26:05;8.00;;;2.30;;
40116;SDS011;25829;50.228;18.936;2023-05-10T17:29:06;2.78;;;2.00;;
40116;SDS011;25829;50.228;18.936;2023-05-10T17:32:07;3.10;;;2.80;;
40116;SDS011;25829;50.228;18.936;2023-05-10T17:35:12;3.03;;;2.70;;
40116;SDS011;25829;50.228;18.936;2023-05-10T17:38:16;5.80;;;4.07;;
40116;SDS011;25829;50.228;18.936;2023-05-10T17:41:17;2.67;;;2.35;;
40116;SDS011;25829;50.228;18.936;2023-05-10T17:44:18;5.45;;;2.50;;
40116;SDS011;25829;50.228;18.936;2023-05-10T17:47:19;4.97;;;2.50;;
40116;SDS011;25829;50.228;18.936;2023-05-10T17:50:19;3.15;;;2.80;;
40116;SDS011;25829;50.228;18.936;2023-05-10T17:53:20;3.70;;;2.90;;
40116;SDS011;25829;50.228;18.936;2023-05-10T17:56:21;4.82;;;3.20;;
40116;SDS011;25829;50.228;18.936;2023-05-10T17:59:22;5.65;;;3.20;;
40116;SDS011;25829;50.228;18.936;2023-05-10T18:02:26;5.35;;;3.00;;
40116;SDS011;25829;50.228;18.936;2023-05-10T18:05:27;7.53;;;3.95;;
40116;SDS011;25829;50.228;18.936;2023-05-10T18:08:29;5.25;;;3.25;;
40116;SDS011;25829;50.228;18.936;2023-05-10T18:11:30;4.72;;;3.35;;
40116;SDS011;25829;50.228;18.936;2023-05-10T18:14:31;4.60;;;3.40;;
40116;SDS011;25829;50.228;18.936;2023-05-10T18:17:31;5.15;;;3.50;;
40116;SDS011;25829;50.228;18.936;2023-05-10T18:20:34;5.32;;;3.60;;
40116;SDS011;25829;50.228;18.936;2023-05-10T18:23:34;4.70;;;3.60;;
40116;SDS011;25829;50.228;18.936;2023-05-10T18:26:36;5.55;;;3.92;;
40116;SDS011;25829;50.228;18.936;2023-05-10T18:29:38;5.78;;;4.25;;